Time;durP1;ratioP1;P1;durP2;ratioP2;P2;SDS_P1;SDS_P2;PMS_P1;PMS_P2;Temp;Humidity;BMP_temperature;BMP_pressure;BME280_temperature;BME280_humidity;BME280_pressure;Samples;Min_cycle;Max_cycle;Signal;HPM_P1;HPM_P2
2023/12/02 00:01:33;;;;;;;0.10;0.10;;;17.20;98.80;;;;;;4970853;28;20201;-87
2023/12/02 00:03:59;;;;;;;0.10;0.10;;;17.10;99.00;;;;;;4968129;28;20026;-76
2023/12/02 00:06:25;;;;;;;0.28;0.28;;;17.10;98.80;;;;;;4970875;28;20033;-89
2023/12/02 00:08:51;;;;;;;2.10;1.95;;;16.00;98.80;;;;;;4955204;28;20027;-80
2023/12/02 00:11:17;;;;;;;0.10;0.10;;;17.00;99.50;;;;;;4965359;28;20380;-77
2023/12/02 00:13:43;;;;;;;23.48;4.57;;;17.00;99.50;;;;;;4979618;28;20027;-85
2023/12/02 00:16:10;;;;;;;0.10;0.10;;;17.00;98.80;;;;;;4970302;28;20023;-76
2023/12/02 00:18:35;;;;;;;0.10;0.10;;;17.10;99.00;;;;;;4983131;28;20054;-80
2023/12/02 00:21:03;;;;;;;0.10;0.10;;;17.10;98.90;;;;;;4967213;28;20014;-78
2023/12/02 00:23:28;;;;;;;0.10;0.10;;;17.00;99.10;;;;;;4949355;28;20033;-88
2023/12/02 00:25:54;;;;;;;0.10;0.10;;;17.00;98.90;;;;;;4965257;28;20658;-77
2023/12/02 00:28:20;;;;;;;0.28;0.28;;;17.00;98.50;;;;;;4965688;28;20025;-81
2023/12/02 00:30:46;;;;;;;0.10;0.10;;;17.00;98.90;;;;;;4969430;28;20663;-76
2023/12/02 00:33:13;;;;;;;0.10;0.10;;;17.00;98.60;;;;;;4971474;28;20027;-85
2023/12/02 00:35:39;;;;;;;0.10;0.10;;;17.10;98.30;;;;;;4968819;28;20098;-84
2023/12/02 00:38:05;;;;;;;1.95;1.85;;;17.10;98.40;;;;;;4972399;28;20050;-78
2023/12/02 00:40:30;;;;;;;0.10;0.10;;;17.00;98.60;;;;;;4962414;28;20030;-84
2023/12/02 00:42:56;;;;;;;0.10;0.10;;;17.00;98.70;;;;;;4969450;28;20097;-77
2023/12/02 00:45:22;;;;;;;8.15;6.03;;;17.00;98.50;;;;;;4963542;28;20613;-78
2023/12/02 00:47:48;;;;;;;0.10;0.10;;;17.00;98.90;;;;;;4962316;28;20027;-77
2023/12/02 00:50:13;;;;;;;0.10;0.10;;;16.90;98.80;;;;;;4962207;28;20030;-78
2023/12/02 00:52:39;;;;;;;0.10;0.10;;;17.20;98.20;;;;;;4961262;28;20049;-89
2023/12/02 00:55:06;;;;;;;0.10;0.10;;;17.20;98.00;;;;;;4971614;28;20010;-77
2023/12/02 00:57:32;;;;;;;0.10;0.10;;;17.20;97.70;;;;;;4962250;28;20722;-86
2023/12/02 00:59:57;;;;;;;0.10;0.10;;;17.20;97.60;;;;;;4961747;28;20027;-82
2023/12/02 01:02:23;;;;;;;0.10;0.10;;;17.20;97.30;;;;;;4962442;28;20078;-81
2023/12/02 01:04:49;;;;;;;0.10;0.10;;;17.20;97.20;;;;;;4965826;28;20338;-83
2023/12/02 01:07:15;;;;;;;0.10;0.10;;;17.20;97.10;;;;;;4962501;28;20026;-80
2023/12/02 01:09:41;;;;;;;0.10;0.10;;;17.20;97.10;;;;;;4962331;28;20047;-80
2023/12/02 01:12:07;;;;;;;0.10;0.10;;;17.20;96.70;;;;;;4969472;28;20074;-80
2023/12/02 01:14:33;;;;;;;0.10;0.10;;;17.20;96.90;;;;;;4962454;28;20106;-77
2023/12/02 01:16:58;;;;;;;0.10;0.10;;;17.20;96.90;;;;;;4960862;28;20094;-76
2023/12/02 01:19:24;;;;;;;1.98;1.95;;;17.20;96.70;;;;;;4962464;28;20836;-77
2023/12/02 01:21:50;;;;;;;0.10;0.10;;;17.20;96.80;;;;;;4967408;28;20335;-77
2023/12/02 01:24:16;;;;;;;0.10;0.10;;;17.10;96.80;;;;;;4962834;28;20019;-82
2023/12/02 01:26:43;;;;;;;0.10;0.10;;;17.10;97.30;;;;;;4962608;28;20573;-79
2023/12/02 01:29:08;;;;;;;0.10;0.10;;;17.20;97.00;;;;;;4960708;28;20038;-86
2023/12/02 01:31:34;;;;;;;0.10;0.10;;;17.20;97.30;;;;;;4971406;28;20031;-75
2023/12/02 01:34:00;;;;;;;0.10;0.10;;;17.00;97.50;;;;;;4966193;28;20019;-79
2023/12/02 01:36:28;;;;;;;0.10;0.10;;;17.00;98.10;;;;;;4962220;28;20027;-90
2023/12/02 01:38:54;;;;;;;0.10;0.10;;;16.90;98.00;;;;;;4960862;28;20102;-80
2023/12/02 01:41:19;;;;;;;0.10;0.10;;;17.00;97.80;;;;;;4962323;28;20098;-76
2023/12/02 01:43:45;;;;;;;0.10;0.10;;;17.00;98.00;;;;;;4969327;28;20026;-77
2023/12/02 01:46:15;;;;;;;0.10;0.10;;;17.00;97.80;;;;;;4961716;28;20617;-76
2023/12/02 01:48:41;;;;;;;0.32;0.32;;;17.00;97.90;;;;;;4943568;28;20023;-77
2023/12/02 01:51:07;;;;;;;0.93;0.93;;;16.90;97.80;;;;;;4961216;28;20543;-76
2023/12/02 01:53:34;;;;;;;0.15;0.15;;;16.80;98.10;;;;;;4959904;28;20106;-76
2023/12/02 01:55:59;;;;;;;0.10;0.10;;;16.80;98.10;;;;;;4964284;28;20015;-76
2023/12/02 01:58:25;;;;;;;1.33;1.23;;;16.90;97.60;;;;;;4966337;28;20409;-75
2023/12/02 02:00:51;;;;;;;0.10;0.10;;;17.00;97.50;;;;;;4961349;28;20590;-75
2023/12/02 02:03:17;;;;;;;0.10;0.10;;;16.90;97.30;;;;;;4959681;28;20026;-77
2023/12/02 02:05:45;;;;;;;0.45;0.45;;;17.00;97.10;;;;;;4960421;28;20023;-76
2023/12/02 02:08:11;;;;;;;1.58;1.48;;;16.90;97.60;;;;;;4960612;28;20045;-77
2023/12/02 02:10:37;;;;;;;5.32;3.13;;;16.80;97.60;;;;;;4965498;28;20664;-80
2023/12/02 02:13:03;;;;;;;3.47;3.28;;;16.80;97.60;;;;;;4963377;28;20735;-78
2023/12/02 02:15:28;;;;;;;0.10;0.10;;;16.80;97.60;;;;;;4960882;28;20531;-82
2023/12/02 02:17:54;;;;;;;0.10;0.10;;;17.00;97.30;;;;;;4961078;28;20019;-82
2023/12/02 02:20:20;;;;;;;0.10;0.10;;;17.00;97.10;;;;;;4960338;28;20058;-83
2023/12/02 02:22:46;;;;;;;0.10;0.10;;;17.00;96.70;;;;;;4964537;28;20039;-82
2023/12/02 02:25:12;;;;;;;0.35;0.35;;;17.00;97.00;;;;;;4960253;28;20099;-85
2023/12/02 02:27:37;;;;;;;0.10;0.10;;;16.90;97.20;;;;;;4962461;28;20029;-76
2023/12/02 02:30:04;;;;;;;2.30;2.20;;;17.00;96.90;;;;;;4962413;28;20472;-90
2023/12/02 02:32:30;;;;;;;0.32;0.32;;;16.70;97.30;;;;;;4967010;28;20015;-79
2023/12/02 02:34:55;;;;;;;0.10;0.10;;;16.90;98.00;;;;;;4964357;28;20038;-75
2023/12/02 02:37:21;;;;;;;0.32;0.32;;;16.90;97.90;;;;;;4968025;28;20031;-77
2023/12/02 02:39:47;;;;;;;0.10;0.10;;;17.00;97.90;;;;;;4967041;28;20021;-77
2023/12/02 02:42:13;;;;;;;0.10;0.10;;;17.00;98.20;;;;;;4963817;28;20022;-78
2023/12/02 02:44:39;;;;;;;0.32;0.32;;;16.90;98.80;;;;;;4963605;28;20614;-77
2023/12/02 02:47:05;;;;;;;0.17;0.17;;;17.10;99.30;;;;;;4963121;28;20220;-76
2023/12/02 02:49:30;;;;;;;1.15;1.05;;;17.20;99.40;;;;;;4963205;28;20030;-77
2023/12/02 02:51:57;;;;;;;0.10;0.10;;;17.30;99.20;;;;;;4963736;28;20038;-81
2023/12/02 02:54:23;;;;;;;0.10;0.10;;;17.40;99.00;;;;;;4963658;28;20043;-76
2023/12/02 02:56:49;;;;;;;0.10;0.10;;;17.40;98.90;;;;;;4963419;28;20057;-78
2023/12/02 02:59:16;;;;;;;0.10;0.10;;;17.40;99.30;;;;;;4965410;28;20615;-77
2023/12/02 03:01:45;;;;;;;0.20;0.20;;;17.30;99.40;;;;;;4965103;28;20029;-78
2023/12/02 03:04:11;;;;;;;0.10;0.10;;;17.20;99.70;;;;;;4980813;28;20022;-77
2023/12/02 03:06:37;;;;;;;1.23;1.13;;;17.30;99.70;;;;;;4969426;28;20113;-78
2023/12/02 03:09:05;;;;;;;0.22;0.22;;;17.40;99.20;;;;;;4963308;28;20189;-77
2023/12/02 03:11:32;;;;;;;0.45;0.45;;;17.50;99.20;;;;;;4965535;28;20039;-78
2023/12/02 03:13:58;;;;;;;0.10;0.10;;;17.40;99.50;;;;;;4962907;28;20015;-75
2023/12/02 03:16:24;;;;;;;0.10;0.10;;;17.20;99.90;;;;;;4970201;28;20078;-75
2023/12/02 03:18:49;;;;;;;0.10;0.10;;;17.20;99.90;;;;;;4963084;28;20666;-77
2023/12/02 03:21:15;;;;;;;0.10;0.10;;;17.10;99.90;;;;;;4962543;28;20066;-76
2023/12/02 03:23:41;;;;;;;0.10;0.10;;;17.10;99.90;;;;;;4967450;28;20666;-75
2023/12/02 03:26:07;;;;;;;0.10;0.10;;;17.20;99.90;;;;;;4962640;28;20736;-76
2023/12/02 03:28:33;;;;;;;0.10;0.10;;;17.30;99.90;;;;;;4962413;28;20019;-75
2023/12/02 03:31:00;;;;;;;0.10;0.10;;;17.20;99.90;;;;;;4947120;28;20034;-76
2023/12/02 03:33:26;;;;;;;0.10;0.10;;;17.20;99.90;;;;;;4964673;28;20019;-77
2023/12/02 03:35:52;;;;;;;0.10;0.10;;;17.10;99.90;;;;;;4962596;28;20277;-76
2023/12/02 03:38:18;;;;;;;0.40;0.40;;;17.10;99.90;;;;;;4963358;28;20042;-81
2023/12/02 03:40:44;;;;;;;0.10;0.10;;;17.20;99.90;;;;;;4962435;28;20025;-77
2023/12/02 03:43:09;;;;;;;0.10;0.10;;;17.20;99.90;;;;;;4962861;28;20047;-78
2023/12/02 03:45:35;;;;;;;0.10;0.10;;;17.20;99.90;;;;;;4962394;28;20027;-87
2023/12/02 03:48:01;;;;;;;0.10;0.10;;;17.30;99.90;;;;;;4962384;28;20061;-78
2023/12/02 03:50:27;;;;;;;0.10;0.10;;;17.40;99.90;;;;;;4962323;28;20030;-80
2023/12/02 03:52:53;;;;;;;0.10;0.10;;;17.30;99.90;;;;;;4976915;28;20111;-83
2023/12/02 03:55:18;;;;;;;0.20;0.20;;;17.30;99.90;;;;;;4966285;28;20593;-80
2023/12/02 03:57:44;;;;;;;0.10;0.10;;;17.30;99.90;;;;;;4962300;28;20072;-75
2023/12/02 04:00:13;;;;;;;0.10;0.10;;;17.10;99.90;;;;;;4961951;28;20113;-81
2023/12/02 04:02:40;;;;;;;1.27;1.17;;;17.00;99.90;;;;;;4962392;28;20022;-75
2023/12/02 04:05:10;;;;;;;0.10;0.10;;;17.10;99.90;;;;;;4962287;28;20051;-79
2023/12/02 04:07:39;;;;;;;0.10;0.10;;;17.10;99.90;;;;;;4962099;28;20034;-77
2023/12/02 04:10:05;;;;;;;0.20;0.20;;;17.00;99.90;;;;;;4962219;28;20015;-83
2023/12/02 04:12:33;;;;;;;0.10;0.10;;;17.00;99.90;;;;;;4944547;28;20039;-76
2023/12/02 04:14:59;;;;;;;0.10;0.10;;;17.00;99.90;;;;;;4961517;28;20019;-82
2023/12/02 04:17:25;;;;;;;0.10;0.10;;;16.10;99.90;;;;;;4962419;28;20030;-84
2023/12/02 04:19:51;;;;;;;0.10;0.10;;;17.10;99.90;;;;;;4941462;29;20046;-77
2023/12/02 04:22:18;;;;;;;0.10;0.10;;;17.20;99.90;;;;;;4942402;28;20305;-76
2023/12/02 04:24:47;;;;;;;0.10;0.10;;;17.10;99.90;;;;;;4942761;28;20022;-81
2023/12/02 04:27:13;;;;;;;0.90;0.90;;;17.10;99.90;;;;;;4942113;28;20024;-79
2023/12/02 04:29:41;;;;;;;0.10;0.10;;;17.10;99.90;;;;;;4942415;28;20038;-78
2023/12/02 04:32:08;;;;;;;0.20;0.20;;;17.10;99.90;;;;;;4946609;28;20545;-76
2023/12/02 04:34:34;;;;;;;0.10;0.10;;;17.10;99.90;;;;;;4944881;28;20280;-80
2023/12/02 04:37:01;;;;;;;0.10;0.10;;;17.10;99.90;;;;;;4942129;28;20031;-84
2023/12/02 04:39:27;;;;;;;0.10;0.10;;;17.00;99.90;;;;;;4942506;28;20152;-86
2023/12/02 04:41:53;;;;;;;0.10;0.10;;;17.00;99.90;;;;;;4946505;28;20102;-76
2023/12/02 04:44:20;;;;;;;0.10;0.10;;;16.80;99.90;;;;;;4951448;28;20044;-80
2023/12/02 04:46:46;;;;;;;0.10;0.10;;;16.70;99.90;;;;;;4952819;29;20027;-85
2023/12/02 04:49:12;;;;;;;0.10;0.10;;;16.80;99.90;;;;;;4942742;29;20509;-83
2023/12/02 04:51:39;;;;;;;0.10;0.10;;;16.70;99.90;;;;;;4941533;28;20122;-76
2023/12/02 04:54:04;;;;;;;0.10;0.10;;;16.60;99.90;;;;;;4942071;29;20158;-82
2023/12/02 04:56:30;;;;;;;1.35;1.25;;;16.50;99.90;;;;;;4942174;29;20110;-85
2023/12/02 04:58:56;;;;;;;0.10;0.10;;;16.60;99.90;;;;;;4942582;29;20134;-76
2023/12/02 05:01:22;;;;;;;24.48;18.60;;;16.60;99.90;;;;;;4942255;28;20683;-86
2023/12/02 05:03:48;;;;;;;0.10;0.10;;;16.50;99.90;;;;;;4944442;29;20062;-76
2023/12/02 05:06:15;;;;;;;0.10;0.10;;;16.30;99.90;;;;;;4943579;28;20678;-77
2023/12/02 05:08:43;;;;;;;0.15;0.15;;;16.30;99.90;;;;;;4943048;28;20134;-84
2023/12/02 05:11:09;;;;;;;0.10;0.10;;;16.40;99.90;;;;;;4944040;28;20028;-78
2023/12/02 05:13:36;;;;;;;0.10;0.10;;;16.20;99.90;;;;;;4953267;28;20158;-76
2023/12/02 05:16:03;;;;;;;0.10;0.10;;;16.30;99.90;;;;;;4943232;29;20023;-79
2023/12/02 05:18:28;;;;;;;0.10;0.10;;;16.50;99.90;;;;;;4944433;28;20189;-84
2023/12/02 05:20:54;;;;;;;0.10;0.10;;;16.50;99.90;;;;;;4963008;28;20034;-81
2023/12/02 05:23:20;;;;;;;0.10;0.10;;;16.40;99.90;;;;;;4963041;28;20019;-89
2023/12/02 05:25:46;;;;;;;0.10;0.10;;;16.30;99.90;;;;;;4966804;28;20027;-79
2023/12/02 05:28:12;;;;;;;0.10;0.10;;;16.30;99.90;;;;;;4962300;28;20102;-82
2023/12/02 05:30:38;;;;;;;0.10;0.10;;;16.20;99.90;;;;;;4943395;28;20237;-77
2023/12/02 05:33:04;;;;;;;0.10;0.10;;;16.10;99.90;;;;;;4971132;28;20019;-77
2023/12/02 05:35:31;;;;;;;0.68;0.68;;;16.10;99.90;;;;;;4967601;28;20078;-90
2023/12/02 05:37:57;;;;;;;0.20;0.20;;;16.10;99.90;;;;;;4965880;28;20654;-85
2023/12/02 05:40:23;;;;;;;0.10;0.10;;;16.00;99.90;;;;;;4966284;28;20046;-77
2023/12/02 05:42:48;;;;;;;1.77;1.67;;;16.10;99.90;;;;;;4965596;28;20106;-79
2023/12/02 05:45:14;;;;;;;0.10;0.10;;;16.10;99.90;;;;;;4963136;28;20033;-75
2023/12/02 05:47:40;;;;;;;0.10;0.10;;;16.10;99.90;;;;;;4960784;28;20047;-79
2023/12/02 05:50:06;;;;;;;0.13;0.13;;;16.10;99.90;;;;;;4960440;28;20685;-80
2023/12/02 05:52:32;;;;;;;0.75;0.75;;;16.20;99.90;;;;;;4961028;28;20027;-84
2023/12/02 05:54:58;;;;;;;0.10;0.10;;;16.40;99.90;;;;;;4967159;28;20022;-85
2023/12/02 05:57:24;;;;;;;0.10;0.10;;;16.40;99.90;;;;;;4962830;28;20030;-77
2023/12/02 05:59:50;;;;;;;0.10;0.10;;;15.80;99.90;;;;;;4961538;28;20027;-76
2023/12/02 06:02:16;;;;;;;20.63;4.45;;;16.60;99.90;;;;;;4963223;28;20055;-85
2023/12/02 06:04:42;;;;;;;0.10;0.10;;;16.90;99.90;;;;;;4963827;28;20637;-75
2023/12/02 06:07:08;;;;;;;0.10;0.10;;;16.90;99.90;;;;;;4943300;28;20022;-85
2023/12/02 06:09:34;;;;;;;7.35;6.68;;;16.90;99.90;;;;;;4959769;28;20023;-77
2023/12/02 06:12:00;;;;;;;0.17;0.17;;;16.90;99.90;;;;;;4963869;28;20085;-76
2023/12/02 06:14:25;;;;;;;0.10;0.10;;;17.00;99.90;;;;;;4961144;28;20018;-79
2023/12/02 06:16:51;;;;;;;0.10;0.10;;;17.00;99.90;;;;;;4960773;28;20026;-87
2023/12/02 06:19:20;;;;;;;0.10;0.10;;;17.00;99.90;;;;;;4961760;28;20627;-77
2023/12/02 06:21:46;;;;;;;2.17;2.05;;;16.90;99.90;;;;;;4962795;28;20257;-77
2023/12/02 06:24:12;;;;;;;0.45;0.45;;;16.80;99.90;;;;;;4962594;28;20102;-77
2023/12/02 06:26:38;;;;;;;0.10;0.10;;;16.90;99.90;;;;;;4962044;28;20070;-78
2023/12/02 06:29:04;;;;;;;0.10;0.10;;;16.90;99.90;;;;;;4960217;28;20019;-78
2023/12/02 06:31:30;;;;;;;0.10;0.10;;;16.70;99.90;;;;;;4959681;28;20092;-80
2023/12/02 06:33:56;;;;;;;0.25;0.25;;;16.60;99.90;;;;;;4961988;28;20023;-87
2023/12/02 06:36:22;;;;;;;0.10;0.10;;;16.60;99.90;;;;;;4961816;28;20034;-76
2023/12/02 06:38:48;;;;;;;0.10;0.10;;;16.60;99.90;;;;;;4969891;28;20146;-86
2023/12/02 06:41:13;;;;;;;0.10;0.10;;;16.60;99.90;;;;;;4961639;28;20113;-77
2023/12/02 06:43:39;;;;;;;0.10;0.10;;;16.70;99.90;;;;;;4959635;28;20027;-76
2023/12/02 06:46:06;;;;;;;0.10;0.10;;;16.60;99.90;;;;;;4959863;28;20030;-75
2023/12/02 06:48:31;;;;;;;0.10;0.10;;;16.60;99.90;;;;;;4960129;28;20023;-80
2023/12/02 06:50:57;;;;;;;0.10;0.10;;;16.70;99.90;;;;;;4942209;28;20035;-76
2023/12/02 06:53:23;;;;;;;0.10;0.10;;;16.70;99.90;;;;;;4960293;28;20697;-75
2023/12/02 06:55:49;;;;;;;1.77;1.70;;;16.70;99.90;;;;;;4959476;28;20654;-76
2023/12/02 06:58:14;;;;;;;0.85;0.85;;;16.90;99.90;;;;;;4962498;28;20507;-82
2023/12/02 07:00:40;;;;;;;0.10;0.10;;;16.90;99.90;;;;;;4965100;28;20031;-89
2023/12/02 07:03:08;;;;;;;0.10;0.10;;;16.90;99.90;;;;;;4963903;28;20035;-75
2023/12/02 07:05:35;;;;;;;0.10;0.10;;;16.90;99.90;;;;;;4943417;28;20081;-75
2023/12/02 07:08:01;;;;;;;0.10;0.10;;;17.00;99.90;;;;;;4959030;28;20541;-77
2023/12/02 07:10:26;;;;;;;0.10;0.10;;;16.90;99.90;;;;;;4959453;28;20670;-76
2023/12/02 07:12:52;;;;;;;0.28;0.28;;;16.90;99.90;;;;;;4961426;28;20022;-75
2023/12/02 07:15:18;;;;;;;0.10;0.10;;;16.80;99.90;;;;;;4962411;28;20018;-76
2023/12/02 07:17:44;;;;;;;0.50;0.50;;;16.80;99.90;;;;;;4963686;28;20033;-74
2023/12/02 07:20:10;;;;;;;0.10;0.10;;;16.90;99.90;;;;;;4962218;28;20122;-76
2023/12/02 07:22:36;;;;;;;0.10;0.10;;;17.00;99.90;;;;;;4962687;28;20145;-75
2023/12/02 07:25:02;;;;;;;0.10;0.10;;;17.00;99.90;;;;;;4962179;28;20098;-75
2023/12/02 07:27:28;;;;;;;0.10;0.10;;;17.00;99.90;;;;;;4962222;28;20023;-76
2023/12/02 07:29:54;;;;;;;0.10;0.10;;;17.10;99.90;;;;;;4962855;28;20060;-85
2023/12/02 07:32:19;;;;;;;0.10;0.10;;;17.10;99.90;;;;;;4962194;28;20030;-76
2023/12/02 07:34:45;;;;;;;0.10;0.10;;;17.10;99.90;;;;;;4970471;28;20033;-78
2023/12/02 07:37:11;;;;;;;0.10;0.10;;;17.10;99.90;;;;;;4962567;28;20130;-76
2023/12/02 07:39:44;;;;;;;0.10;0.10;;;17.10;99.90;;;;;;4968802;28;20022;-87
2023/12/02 07:42:09;;;;;;;0.10;0.10;;;17.10;99.90;;;;;;4964731;28;20209;-84
2023/12/02 07:44:36;;;;;;;0.00;0.00;;;;;;;;;;4961582;28;20019;-86
2023/12/02 07:47:02;;;;;;;0.55;0.55;;;17.20;99.90;;;;;;4961948;28;20051;-78
2023/12/02 07:49:28;;;;;;;0.10;0.10;;;17.20;99.90;;;;;;4962064;28;20057;-79
2023/12/02 07:51:53;;;;;;;0.10;0.10;;;17.10;99.90;;;;;;4962052;28;20752;-84
2023/12/02 07:54:19;;;;;;;0.10;0.10;;;17.20;99.90;;;;;;4962485;28;20505;-88
2023/12/02 07:56:45;;;;;;;29.00;27.42;;;;;;;;;;4964978;28;20626;-76
2023/12/02 07:59:11;;;;;;;2.95;2.75;;;17.10;99.90;;;;;;4967517;28;20031;-75
2023/12/02 08:01:37;;;;;;;0.10;0.10;;;17.10;99.90;;;;;;4948488;28;20031;-76
2023/12/02 08:04:03;;;;;;;0.10;0.10;;;17.10;99.90;;;;;;4961829;28;20034;-79
2023/12/02 08:06:29;;;;;;;0.10;0.10;;;17.30;99.90;;;;;;4970869;28;20066;-76
2023/12/02 08:08:54;;;;;;;0.10;0.10;;;17.30;99.90;;;;;;4963798;28;20197;-76
2023/12/02 08:11:21;;;;;;;0.10;0.10;;;17.40;99.90;;;;;;4962483;28;20035;-74
2023/12/02 08:13:46;;;;;;;0.10;0.10;;;17.50;99.90;;;;;;4961111;28;20218;-75
2023/12/02 08:16:12;;;;;;;0.73;0.73;;;17.40;99.90;;;;;;4961076;28;20777;-75
2023/12/02 08:18:38;;;;;;;1.27;1.17;;;17.40;99.90;;;;;;4962876;28;20122;-75
2023/12/02 08:21:04;;;;;;;2.08;1.95;;;17.50;99.90;;;;;;4960947;28;20124;-75
2023/12/02 08:23:30;;;;;;;6.13;5.78;;;17.60;99.90;;;;;;4964152;28;20538;-77
2023/12/02 08:25:58;;;;;;;0.10;0.10;;;17.70;99.90;;;;;;4969536;28;20029;-76
2023/12/02 08:28:24;;;;;;;0.10;0.10;;;16.40;99.90;;;;;;4960569;28;20025;-89
2023/12/02 08:30:50;;;;;;;0.10;0.10;;;17.70;99.90;;;;;;4943627;28;20039;-81
2023/12/02 08:33:16;;;;;;;1.00;1.00;;;17.80;99.90;;;;;;4964933;28;20676;-81
2023/12/02 08:35:42;;;;;;;0.10;0.10;;;17.90;99.90;;;;;;4944031;28;20073;-76
2023/12/02 08:38:07;;;;;;;0.20;0.20;;;18.00;99.40;;;;;;4961228;28;20026;-80
2023/12/02 08:40:33;;;;;;;1.20;0.80;;;18.10;99.40;;;;;;4961340;28;20029;-80
2023/12/02 08:42:59;;;;;;;0.10;0.10;;;18.00;99.90;;;;;;4973434;28;20053;-80
2023/12/02 08:45:25;;;;;;;0.10;0.10;;;;;;;;;;4964232;28;20124;-82
2023/12/02 08:47:51;;;;;;;0.10;0.10;;;17.90;99.00;;;;;;4981441;28;20023;-80
2023/12/02 08:50:17;;;;;;;0.10;0.10;;;17.90;99.20;;;;;;4980197;28;20022;-76
2023/12/02 08:52:42;;;;;;;0.10;0.10;;;17.90;99.50;;;;;;4999416;28;20730;-76
2023/12/02 08:55:08;;;;;;;0.10;0.10;;;18.00;99.10;;;;;;4981832;28;20121;-84
2023/12/02 08:57:34;;;;;;;0.10;0.10;;;18.00;99.20;;;;;;4980428;28;20027;-82
2023/12/02 09:00:00;;;;;;;0.10;0.10;;;18.20;99.10;;;;;;4983377;28;20029;-73
2023/12/02 09:02:26;;;;;;;0.10;0.10;;;18.20;98.90;;;;;;4979432;28;20578;-75
2023/12/02 09:04:52;;;;;;;8.23;7.82;;;18.30;98.60;;;;;;4979721;28;20669;-77
2023/12/02 09:07:18;;;;;;;0.10;0.10;;;18.50;98.50;;;;;;4982433;28;20014;-75
2023/12/02 09:09:44;;;;;;;0.00;0.00;;;18.60;98.30;;;;;;4980713;28;20165;-76
2023/12/02 09:12:10;;;;;;;0.10;0.10;;;18.70;97.30;;;;;;4981438;28;20030;-76
2023/12/02 09:14:36;;;;;;;0.10;0.10;;;18.80;97.20;;;;;;4980163;28;20098;-75
2023/12/02 09:17:03;;;;;;;0.10;0.10;;;18.80;97.50;;;;;;4980249;28;20030;-77
2023/12/02 09:19:29;;;;;;;0.10;0.10;;;18.80;97.20;;;;;;4979703;28;20043;-77
2023/12/02 09:21:55;;;;;;;5.45;4.93;;;18.90;96.20;;;;;;4979180;28;20022;-75
2023/12/02 09:24:56;;;;;;;0.10;0.10;;;19.00;96.00;;;;;;4980225;28;20019;-76
2023/12/02 09:28:06;;;;;;;2.60;2.50;;;17.80;95.30;;;;;;4967499;28;20080;-73
2023/12/02 09:30:36;;;;;;;3.33;3.17;;;19.00;94.80;;;;;;4883479;29;20859;-76
2023/12/02 09:33:05;;;;;;;0.10;0.10;;;19.20;95.10;;;;;;4882658;29;20033;-75
2023/12/02 09:35:33;;;;;;;0.22;0.22;;;19.30;95.00;;;;;;4886208;29;20084;-76
2023/12/02 09:38:00;;;;;;;0.10;0.10;;;19.50;93.70;;;;;;4908923;23;20051;-89
2023/12/02 09:40:44;;;;;;;0.17;0.17;;;19.50;93.30;;;;;;4959496;28;20688;-80
2023/12/02 09:43:31;;;;;;;0.30;0.30;;;19.30;93.80;;;;;;4961731;28;20026;-75
2023/12/02 09:46:24;;;;;;;0.10;0.10;;;19.40;93.40;;;;;;4959780;28;20018;-76
2023/12/02 09:49:05;;;;;;;0.00;0.00;;;20.00;92.90;;;;;;4960773;28;20031;-75
2023/12/02 09:51:53;;;;;;;0.10;0.10;;;19.30;92.90;;;;;;4960011;28;20161;-82
2023/12/02 09:54:42;;;;;;;0.10;0.10;;;19.20;92.90;;;;;;4960103;28;20131;-77
2023/12/02 09:57:14;;;;;;;0.10;0.10;;;19.30;92.90;;;;;;4961887;28;20106;-77
2023/12/02 09:59:58;;;;;;;0.10;0.10;;;19.20;92.70;;;;;;4960869;28;20026;-74
2023/12/02 10:03:00;;;;;;;0.10;0.10;;;19.30;92.70;;;;;;4960025;28;20015;-78
2023/12/02 10:05:26;;;;;;;0.10;0.10;;;19.30;92.60;;;;;;4959917;28;20025;-74
2023/12/02 10:08:16;;;;;;;5.90;1.13;;;19.10;92.90;;;;;;4960633;28;20103;-78
2023/12/02 10:11:04;;;;;;;0.10;0.10;;;19.80;93.10;;;;;;4959852;28;20038;-75
2023/12/02 10:14:15;;;;;;;4.97;4.63;;;19.30;92.60;;;;;;4961011;28;20034;-76
2023/12/02 10:16:42;;;;;;;3.85;1.50;;;19.50;92.90;;;;;;4862479;29;20039;-93
2023/12/02 10:19:19;;;;;;;0.10;0.10;;;19.70;92.40;;;;;;4862950;29;20044;-77
2023/12/02 10:21:49;;;;;;;0.10;0.10;;;19.70;92.00;;;;;;4864905;29;20093;-75
2023/12/02 10:24:28;;;;;;;0.10;0.10;;;20.60;92.00;;;;;;4867516;29;20029;-75
2023/12/02 10:27:01;;;;;;;0.10;0.10;;;19.70;92.10;;;;;;4863689;29;20539;-86
2023/12/02 10:29:46;;;;;;;0.00;0.00;;;19.80;91.90;;;;;;4863106;29;20677;-82
2023/12/02 10:32:35;;;;;;;6.22;5.93;;;19.60;91.80;;;;;;4864510;29;20041;-87
2023/12/02 10:35:15;;;;;;;0.10;0.10;;;19.60;92.20;;;;;;4875443;29;20323;-79
2023/12/02 10:37:42;;;;;;;0.10;0.10;;;19.70;91.90;;;;;;4866135;29;20049;-80
2023/12/02 10:40:11;;;;;;;0.77;0.75;;;19.60;92.20;;;;;;4863731;29;20112;-75
2023/12/02 10:42:48;;;;;;;0.10;0.10;;;19.70;92.20;;;;;;4867827;29;20026;-81
2023/12/02 10:45:16;;;;;;;0.35;0.35;;;19.80;91.60;;;;;;4862246;29;20057;-84
2023/12/02 10:47:45;;;;;;;0.10;0.10;;;19.80;91.90;;;;;;4869662;29;20068;-81
2023/12/02 10:50:12;;;;;;;0.10;0.10;;;21.30;92.10;;;;;;4896711;28;20593;-74
2023/12/02 10:52:42;;;;;;;4.78;4.57;;;20.10;91.10;;;;;;4945032;28;20642;-74
2023/12/02 10:55:09;;;;;;;0.20;0.20;;;20.00;90.70;;;;;;4945658;28;20026;-75
2023/12/02 10:57:35;;;;;;;0.10;0.10;;;19.90;91.00;;;;;;4963512;28;20015;-75
2023/12/02 11:00:07;;;;;;;0.47;0.47;;;19.90;91.10;;;;;;4965296;28;20101;-76
2023/12/02 11:02:52;;;;;;;0.10;0.10;;;19.70;91.30;;;;;;4962650;28;20030;-77
2023/12/02 11:05:23;;;;;;;0.45;0.45;;;19.70;91.20;;;;;;4966540;28;20065;-75
2023/12/02 11:08:06;;;;;;;0.10;0.10;;;19.50;91.80;;;;;;4971989;28;20206;-75
2023/12/02 11:10:46;;;;;;;0.10;0.10;;;19.60;92.10;;;;;;4969238;28;20034;-88
2023/12/02 11:13:21;;;;;;;0.10;0.10;;;19.60;91.50;;;;;;4970149;28;20018;-79
2023/12/02 11:16:29;;;;;;;0.10;0.10;;;19.60;91.50;;;;;;4950268;28;20023;-76
2023/12/02 11:19:17;;;;;;;0.10;0.10;;;19.40;91.80;;;;;;4963505;28;20089;-77
2023/12/02 11:21:56;;;;;;;0.10;0.10;;;19.20;92.70;;;;;;4964023;28;20023;-82
2023/12/02 11:24:39;;;;;;;0.35;0.35;;;19.10;93.90;;;;;;4970175;28;20130;-76
2023/12/02 11:27:11;;;;;;;;;;;19.00;93.70;;;;;;4969386;28;20015;-81
2023/12/02 11:30:19;;;;;;;0.10;0.10;;;19.20;93.30;;;;;;4951341;28;19912;-85
2023/12/02 11:33:29;;;;;;;2.08;1.95;;;19.10;93.70;;;;;;4963707;28;20027;-83
2023/12/02 11:36:03;;;;;;;0.03;0.03;;;19.10;93.00;;;;;;4962790;28;20019;-82
2023/12/02 11:38:33;;;;;;;1.55;1.55;;;18.90;93.80;;;;;;4968252;28;20056;-82
2023/12/02 11:41:20;;;;;;;0.10;0.10;;;18.90;94.20;;;;;;4952136;28;20031;-75
2023/12/02 11:44:24;;;;;;;0.57;0.57;;;18.80;94.50;;;;;;4975934;23;20105;-77
2023/12/02 11:46:58;;;;;;;;;;;18.00;95.00;;;;;;4964111;28;20029;-85
2023/12/02 11:50:04;;;;;;;1.10;1.10;;;18.50;95.10;;;;;;4976586;28;19946;-76
2023/12/02 11:52:47;;;;;;;0.10;0.10;;;18.20;96.30;;;;;;4962398;28;20038;-76
2023/12/02 11:55:22;;;;;;;;;;;18.30;96.30;;;;;;4962768;28;20066;-76
2023/12/02 11:58:12;;;;;;;0.10;0.10;;;18.10;96.60;;;;;;4963686;28;20012;-83
2023/12/02 12:00:41;;;;;;;0.10;0.10;;;17.90;97.30;;;;;;4962083;28;20046;-77
2023/12/02 12:03:47;;;;;;;0.10;0.10;;;17.80;97.90;;;;;;4967670;28;20030;-76
2023/12/02 12:06:30;;;;;;;0.10;0.10;;;17.60;98.90;;;;;;4968044;28;20027;-83
2023/12/02 12:09:21;;;;;;;0.13;0.13;;;17.50;99.90;;;;;;4971324;28;20031;-83
2023/12/02 12:11:49;;;;;;;0.10;0.10;;;16.70;99.90;;;;;;4945659;28;20555;-81
2023/12/02 12:14:16;;;;;;;0.50;0.50;;;16.90;99.90;;;;;;4962442;28;20027;-84
2023/12/02 12:16:42;;;;;;;0.03;0.03;;;18.40;99.90;;;;;;4964399;28;20916;-84
2023/12/02 12:19:08;;;;;;;0.10;0.10;;;17.50;99.90;;;;;;4983513;28;20029;-80
2023/12/02 12:21:34;;;;;;;0.10;0.10;;;16.70;99.90;;;;;;4964559;28;20110;-77
2023/12/02 12:24:02;;;;;;;0.10;0.10;;;16.50;99.90;;;;;;4945352;28;20018;-77
2023/12/02 12:26:29;;;;;;;0.10;0.10;;;16.40;99.90;;;;;;4972781;28;20061;-80
2023/12/02 12:28:55;;;;;;;0.10;0.10;;;16.30;99.90;;;;;;4973682;28;20110;-88
2023/12/02 12:31:21;;;;;;;0.10;0.10;;;16.20;99.90;;;;;;4963212;28;20190;-77
2023/12/02 12:33:53;;;;;;;0.10;0.10;;;16.10;99.90;;;;;;4962830;28;20351;-83
2023/12/02 12:36:30;;;;;;;0.10;0.10;;;18.90;99.90;;;;;;4945623;28;20067;-77
2023/12/02 12:39:03;;;;;;;4.57;4.13;;;16.10;99.90;;;;;;4964826;28;20309;-81
2023/12/02 12:41:29;;;;;;;0.10;0.10;;;16.00;99.90;;;;;;4971342;28;20624;-79
2023/12/02 12:43:57;;;;;;;3.08;2.78;;;16.00;99.90;;;;;;4963328;28;20293;-76
2023/12/02 12:46:28;;;;;;;0.10;0.10;;;15.90;99.90;;;;;;4962039;28;20019;-77
2023/12/02 12:48:54;;;;;;;0.10;0.10;;;16.00;99.90;;;;;;4944795;28;20031;-81
2023/12/02 12:51:41;;;;;;;0.10;0.10;;;13.50;99.90;;;;;;4962397;28;20023;-92
2023/12/02 12:54:11;;;;;;;0.10;0.10;;;15.90;99.90;;;;;;4962310;28;20029;-79
2023/12/02 12:56:40;;;;;;;0.20;0.20;;;15.80;99.90;;;;;;4965919;28;20058;-76
2023/12/02 12:59:12;;;;;;;0.10;0.10;;;16.30;99.90;;;;;;4969550;28;20023;-77